createdAt,value
2023-01-26T00:02:19.093Z,35.00
2023-01-26T00:04:47.624Z,30.17
2023-01-26T00:07:17.547Z,29.50
2023-01-26T00:09:46.096Z,28.67
2023-01-26T00:12:15.361Z,31.57
2023-01-26T00:14:53.102Z,28.83
2023-01-26T00:17:28.214Z,27.43
2023-01-26T00:19:57.623Z,27.10
2023-01-26T00:22:28.491Z,27.27
2023-01-26T00:24:57.129Z,26.60
2023-01-26T00:27:25.679Z,27.33
2023-01-26T00:29:54.353Z,30.53
2023-01-26T00:32:22.939Z,28.53
2023-01-26T00:34:51.524Z,27.93
2023-01-26T00:37:20.240Z,27.37
2023-01-26T00:39:50.199Z,29.27
2023-01-26T00:42:18.753Z,28.33
2023-01-26T00:44:47.313Z,28.30
2023-01-26T00:47:16.243Z,30.30
2023-01-26T00:49:44.852Z,31.77
2023-01-26T00:52:13.614Z,30.23
2023-01-26T00:54:42.167Z,30.37
2023-01-26T00:57:12.185Z,32.27
2023-01-26T00:59:40.856Z,28.83
2023-01-26T01:02:09.452Z,30.33
2023-01-26T01:04:37.999Z,30.33
2023-01-26T01:07:06.612Z,27.77
2023-01-26T01:09:35.183Z,29.20
2023-01-26T01:12:03.787Z,29.47
2023-01-26T01:14:33.738Z,29.57
2023-01-26T01:17:02.320Z,28.83
2023-01-26T01:19:30.915Z,31.30
2023-01-26T01:21:59.466Z,29.67
2023-01-26T01:24:28.044Z,28.63
2023-01-26T01:26:56.575Z,27.77
2023-01-26T01:29:25.132Z,28.03
2023-01-26T01:31:55.047Z,25.33
2023-01-26T01:34:23.623Z,26.10
2023-01-26T01:36:52.270Z,32.57
2023-01-26T01:39:20.794Z,26.73
2023-01-26T01:41:49.355Z,26.90
2023-01-26T01:44:19.724Z,25.27
2023-01-26T01:46:54.311Z,25.80
2023-01-26T01:49:26.822Z,28.00
2023-01-26T01:51:57.438Z,25.93
2023-01-26T01:54:28.847Z,26.30
2023-01-26T01:56:59.899Z,27.07
2023-01-26T01:59:28.481Z,26.63
2023-01-26T02:01:58.390Z,29.73
2023-01-26T02:04:28.429Z,24.57
2023-01-26T02:06:59.147Z,30.30
2023-01-26T02:09:48.212Z,30.83
2023-01-26T02:12:18.119Z,31.13
2023-01-26T02:14:47.113Z,27.30
2023-01-26T02:17:15.708Z,24.57
2023-01-26T02:19:49.564Z,28.60
2023-01-26T02:22:22.590Z,27.33
2023-01-26T02:24:51.314Z,30.17
2023-01-26T02:27:21.345Z,29.00
2023-01-26T02:29:50.135Z,30.30
2023-01-26T02:32:18.716Z,27.63
2023-01-26T02:34:47.247Z,26.30
2023-01-26T02:37:16.155Z,28.73
2023-01-26T02:39:47.784Z,28.10
2023-01-26T02:42:34.338Z,29.13
2023-01-26T02:45:04.316Z,28.87
2023-01-26T02:47:32.853Z,32.17
2023-01-26T02:50:00.607Z,29.47
2023-01-26T02:52:31.187Z,28.90
2023-01-26T02:55:17.519Z,28.23
2023-01-26T02:57:46.170Z,28.30
2023-01-26T03:00:17.313Z,31.43
2023-01-26T03:02:46.401Z,31.60
2023-01-26T03:05:15.121Z,32.57
2023-01-26T03:07:43.640Z,32.07
2023-01-26T03:10:13.143Z,29.57
2023-01-26T03:12:41.962Z,32.57
2023-01-26T03:15:28.879Z,33.17
2023-01-26T03:18:22.080Z,28.47
2023-01-26T03:21:08.704Z,27.10
2023-01-26T03:23:55.206Z,30.53
2023-01-26T03:26:41.700Z,31.80
2023-01-26T03:29:10.364Z,27.80
2023-01-26T03:31:39.145Z,27.87
2023-01-26T03:34:09.081Z,26.70
2023-01-26T03:36:37.936Z,29.43
2023-01-26T03:39:06.543Z,31.23
2023-01-26T03:41:52.923Z,26.80
2023-01-26T03:44:39.263Z,31.90
2023-01-26T03:47:25.746Z,31.47
2023-01-26T03:50:13.750Z,31.37
2023-01-26T03:53:00.187Z,31.17
2023-01-26T03:55:46.546Z,30.97
2023-01-26T03:58:15.063Z,31.17
2023-01-26T04:00:43.707Z,25.70
2023-01-26T04:03:30.097Z,30.57
2023-01-26T04:06:18.868Z,30.10
2023-01-26T04:08:48.735Z,28.50
2023-01-26T04:11:17.325Z,29.83
2023-01-26T04:14:03.677Z,27.37
2023-01-26T04:16:50.083Z,27.90
2023-01-26T04:19:36.508Z,27.73
2023-01-26T04:22:06.434Z,28.33
2023-01-26T04:24:34.968Z,32.57
2023-01-26T04:27:03.573Z,23.93
2023-01-26T04:29:32.141Z,24.57
2023-01-26T04:32:00.760Z,27.00
2023-01-26T04:34:29.398Z,28.10
2023-01-26T04:36:58.163Z,26.10
2023-01-26T04:39:28.104Z,25.33
2023-01-26T04:41:56.696Z,27.40
2023-01-26T04:44:25.249Z,28.57
2023-01-26T04:46:53.847Z,29.87
2023-01-26T04:49:22.464Z,25.93
2023-01-26T04:51:51.022Z,27.83
2023-01-26T04:54:19.880Z,23.77
2023-01-26T04:56:51.629Z,24.33
2023-01-26T04:59:20.253Z,28.33
2023-01-26T05:01:48.816Z,24.90
2023-01-26T05:04:17.438Z,31.33
2023-01-26T05:06:46.036Z,30.73
2023-01-26T05:09:14.634Z,32.70
2023-01-26T05:11:43.227Z,37.53
2023-01-26T05:14:13.158Z,37.07
2023-01-26T05:16:41.727Z,38.17
2023-01-26T05:19:10.334Z,39.40
2023-01-26T05:21:38.971Z,35.17
2023-01-26T05:24:08.466Z,35.30
2023-01-26T05:26:37.087Z,36.60
2023-01-26T05:29:06.885Z,31.90
2023-01-26T05:31:36.860Z,32.60
2023-01-26T05:34:05.432Z,34.17
2023-01-26T05:36:33.966Z,35.63
2023-01-26T05:39:02.541Z,34.73
2023-01-26T05:41:31.097Z,33.90
2023-01-26T05:43:59.748Z,36.47
2023-01-26T05:46:28.392Z,34.03
2023-01-26T05:48:58.277Z,33.77
2023-01-26T05:51:26.835Z,36.60
2023-01-26T05:53:55.369Z,31.97
2023-01-26T05:56:24.042Z,29.43
2023-01-26T05:58:52.562Z,29.57
2023-01-26T06:01:21.145Z,30.63
2023-01-26T06:03:49.740Z,30.07
2023-01-26T06:06:20.033Z,29.43
2023-01-26T06:08:48.742Z,25.87
2023-01-26T06:11:17.284Z,30.27
2023-01-26T06:13:45.884Z,26.43
2023-01-26T06:16:14.447Z,31.63
2023-01-26T06:18:43.062Z,28.40
2023-01-26T06:21:11.720Z,32.83
2023-01-26T06:23:41.693Z,30.43
2023-01-26T06:26:10.992Z,30.47
2023-01-26T06:28:39.668Z,29.13
2023-01-26T06:31:10.725Z,26.80
2023-01-26T06:33:39.708Z,28.87
2023-01-26T06:36:10.135Z,30.60
2023-01-26T06:38:39.011Z,26.67
2023-01-26T06:41:09.511Z,33.00
2023-01-26T06:43:38.517Z,28.30
2023-01-26T06:46:07.502Z,30.30
2023-01-26T06:48:36.920Z,31.13
2023-01-26T06:51:06.840Z,33.43
2023-01-26T06:53:36.038Z,32.00
2023-01-26T06:56:04.730Z,30.67
2023-01-26T06:58:34.696Z,28.27
2023-01-26T07:01:04.504Z,29.77
2023-01-26T07:03:33.134Z,31.00
2023-01-26T07:06:01.735Z,34.07
2023-01-26T07:08:30.268Z,35.80
2023-01-26T07:10:58.845Z,32.70
2023-01-26T07:13:27.407Z,31.00
2023-01-26T07:16:03.139Z,34.60
2023-01-26T07:18:32.883Z,35.50
2023-01-26T07:21:02.406Z,29.87
2023-01-26T07:23:32.230Z,31.40
2023-01-26T07:26:01.620Z,34.17
2023-01-26T07:28:30.460Z,32.77
2023-01-26T07:30:59.622Z,32.37
2023-01-26T07:33:29.978Z,31.77
2023-01-26T07:35:58.840Z,31.63
2023-01-26T07:38:28.268Z,29.93
2023-01-26T07:40:56.907Z,30.53
2023-01-26T07:43:25.739Z,30.37
2023-01-26T07:45:54.977Z,34.53
2023-01-26T07:48:24.850Z,29.03
2023-01-26T07:50:54.817Z,29.93
2023-01-26T07:53:25.197Z,32.80
2023-01-26T07:55:53.787Z,32.10
2023-01-26T07:58:22.370Z,28.23
2023-01-26T08:00:50.928Z,32.57
2023-01-26T08:03:19.549Z,36.00
2023-01-26T08:05:48.111Z,33.30
2023-01-26T08:08:19.311Z,29.30
2023-01-26T08:10:47.879Z,32.43
2023-01-26T08:13:21.020Z,31.77
2023-01-26T08:15:55.199Z,35.27
2023-01-26T08:18:23.840Z,36.10
2023-01-26T08:20:53.096Z,32.37
2023-01-26T08:23:23.209Z,31.17
2023-01-26T08:25:51.834Z,31.27
2023-01-26T08:28:21.263Z,34.33
2023-01-26T08:30:50.947Z,28.73
2023-01-26T08:33:19.493Z,29.47
2023-01-26T08:35:49.085Z,32.50
2023-01-26T08:38:17.645Z,27.47
2023-01-26T08:40:52.711Z,31.03
2023-01-26T08:43:21.314Z,32.53
2023-01-26T08:45:49.886Z,31.90
2023-01-26T08:48:18.489Z,28.40
2023-01-26T08:50:47.075Z,33.50
2023-01-26T08:53:15.689Z,34.83
2023-01-26T08:55:44.275Z,28.63
2023-01-26T08:58:14.211Z,29.07
2023-01-26T09:00:42.776Z,32.50
2023-01-26T09:03:11.487Z,28.17
2023-01-26T09:05:41.517Z,29.83
2023-01-26T09:08:12.221Z,30.03
2023-01-26T09:10:40.840Z,29.00
2023-01-26T09:13:09.461Z,29.30
2023-01-26T09:15:40.364Z,29.07
2023-01-26T09:18:09.084Z,30.97
2023-01-26T09:20:39.287Z,32.57
2023-01-26T09:23:08.045Z,30.10
2023-01-26T09:25:38.255Z,30.90
2023-01-26T09:28:07.440Z,27.43
2023-01-26T09:30:36.103Z,28.00
2023-01-26T09:33:06.851Z,31.77
2023-01-26T09:35:35.433Z,33.73
2023-01-26T09:38:03.976Z,30.60
2023-01-26T09:40:39.464Z,31.33
2023-01-26T09:43:16.233Z,31.50
2023-01-26T09:45:48.497Z,31.50
2023-01-26T09:48:25.285Z,33.17
2023-01-26T09:50:57.405Z,31.43
2023-01-26T09:53:28.043Z,31.00
2023-01-26T09:55:56.784Z,30.30
2023-01-26T09:58:31.048Z,29.17
2023-01-26T10:01:02.250Z,34.80
2023-01-26T10:03:35.236Z,31.53
2023-01-26T10:06:07.783Z,25.93
2023-01-26T10:08:36.422Z,27.90
2023-01-26T10:11:06.939Z,27.23
2023-01-26T10:13:36.085Z,29.40
2023-01-26T10:16:06.594Z,25.60
2023-01-26T10:18:38.946Z,28.33
2023-01-26T10:21:09.289Z,28.20
2023-01-26T10:23:37.861Z,25.73
2023-01-26T10:26:12.970Z,24.83
2023-01-26T10:28:43.093Z,23.83
2023-01-26T10:31:14.531Z,26.63
2023-01-26T10:33:50.497Z,24.73
2023-01-26T10:36:19.274Z,24.73
2023-01-26T10:38:48.228Z,22.97
2023-01-26T10:41:27.151Z,23.50
2023-01-26T10:43:56.637Z,22.57
2023-01-26T10:46:26.439Z,24.13
2023-01-26T10:48:57.115Z,23.20
2023-01-26T10:51:27.327Z,22.33
2023-01-26T10:54:16.006Z,21.60
2023-01-26T10:56:48.694Z,24.33
2023-01-26T10:59:20.608Z,23.47
2023-01-26T11:01:56.039Z,23.17
2023-01-26T11:04:26.306Z,23.90
2023-01-26T11:06:55.285Z,26.83
2023-01-26T11:09:26.934Z,25.83
2023-01-26T11:12:02.804Z,22.97
2023-01-26T11:14:31.953Z,24.53
2023-01-26T11:17:02.453Z,23.87
2023-01-26T11:19:40.034Z,21.77
2023-01-26T11:22:10.232Z,24.73
2023-01-26T11:24:44.028Z,23.90
2023-01-26T11:27:27.820Z,23.33
2023-01-26T11:30:03.962Z,22.80
2023-01-26T11:32:36.919Z,24.07
2023-01-26T11:35:11.873Z,19.27
2023-01-26T11:37:44.264Z,21.10
2023-01-26T11:40:25.641Z,19.43
2023-01-26T11:43:00.235Z,25.80
2023-01-26T11:45:31.023Z,24.87
2023-01-26T11:48:08.213Z,22.77
2023-01-26T11:50:40.294Z,29.07
2023-01-26T11:53:19.315Z,22.57
2023-01-26T11:55:57.495Z,23.23
2023-01-26T11:58:32.715Z,24.73
2023-01-26T12:01:02.590Z,26.90
2023-01-26T12:03:34.742Z,23.17
2023-01-26T12:06:07.377Z,26.30
2023-01-26T12:08:39.416Z,25.57
2023-01-26T12:11:25.645Z,26.73
2023-01-26T12:14:08.131Z,25.37
2023-01-26T12:16:40.033Z,24.23
2023-01-26T12:19:13.686Z,22.50
2023-01-26T12:21:45.287Z,26.47
2023-01-26T12:24:43.325Z,23.47
2023-01-26T12:27:06.918Z,23.17
2023-01-26T12:29:41.597Z,25.77
2023-01-26T12:32:12.193Z,23.10
2023-01-26T12:34:40.776Z,22.10
2023-01-26T12:37:23.654Z,20.50
2023-01-26T12:39:58.841Z,19.60
2023-01-26T12:42:31.813Z,17.93
2023-01-26T12:45:02.745Z,18.47
2023-01-26T12:47:33.744Z,16.17
2023-01-26T12:50:05.783Z,16.53
2023-01-26T12:52:38.936Z,17.23
2023-01-26T12:55:14.082Z,17.47
2023-01-26T12:57:46.154Z,17.93
2023-01-26T13:00:25.456Z,15.23
2023-01-26T13:02:56.036Z,16.27
2023-01-26T13:05:25.619Z,16.80
2023-01-26T13:07:55.514Z,14.70
2023-01-26T13:10:26.338Z,17.17
2023-01-26T13:12:56.102Z,13.93
2023-01-26T13:15:25.448Z,14.23
2023-01-26T13:17:55.292Z,14.63
2023-01-26T13:20:25.761Z,11.03
2023-01-26T13:22:56.127Z,14.00
2023-01-26T13:25:31.136Z,12.00
2023-01-26T13:28:00.724Z,11.30
2023-01-26T13:30:36.894Z,12.47
2023-01-26T13:33:10.814Z,12.63
2023-01-26T13:35:39.776Z,10.20
2023-01-26T13:38:13.649Z,10.97
2023-01-26T13:40:44.232Z,10.23
2023-01-26T13:43:26.834Z,10.43
2023-01-26T13:46:03.485Z,8.80
2023-01-26T13:48:41.829Z,9.20
2023-01-26T13:51:11.064Z,9.30
2023-01-26T13:53:42.317Z,8.23
2023-01-26T13:56:22.105Z,9.47
2023-01-26T13:58:50.701Z,9.27
2023-01-26T14:01:19.585Z,9.70
2023-01-26T14:03:48.269Z,9.33
2023-01-26T14:06:19.597Z,10.43
2023-01-26T14:08:52.659Z,8.07
2023-01-26T14:11:22.425Z,5.80
2023-01-26T14:13:52.807Z,5.87
2023-01-26T14:16:26.593Z,5.90
2023-01-26T14:19:05.672Z,5.60
2023-01-26T14:21:34.272Z,5.67
2023-01-26T14:24:04.253Z,4.80
2023-01-26T14:26:33.708Z,5.37
2023-01-26T14:29:03.267Z,5.37
2023-01-26T14:31:32.382Z,4.73
2023-01-26T14:34:01.446Z,5.03
2023-01-26T14:36:32.187Z,7.07
2023-01-26T14:39:01.112Z,5.83
2023-01-26T14:41:32.148Z,5.33
2023-01-26T14:44:01.940Z,5.37
2023-01-26T14:46:33.359Z,5.10
2023-01-26T14:49:06.044Z,6.43
2023-01-26T14:51:36.787Z,6.07
2023-01-26T14:54:06.470Z,4.87
2023-01-26T14:56:37.945Z,7.00
2023-01-26T14:59:07.208Z,7.03
2023-01-26T15:01:36.033Z,6.27
2023-01-26T15:04:05.831Z,6.73
2023-01-26T15:06:34.702Z,6.00
2023-01-26T15:09:05.567Z,5.57
2023-01-26T15:11:54.595Z,7.87
2023-01-26T15:14:28.283Z,6.40
2023-01-26T15:16:56.818Z,6.40
2023-01-26T15:19:26.103Z,7.60
2023-01-26T15:21:54.917Z,6.17
2023-01-26T15:24:23.551Z,7.27
2023-01-26T15:26:53.626Z,7.23
2023-01-26T15:29:25.591Z,7.27
2023-01-26T15:31:55.032Z,7.43
2023-01-26T15:34:34.656Z,8.20
2023-01-26T15:49:13.431Z,8.93
2023-01-26T15:51:42.316Z,8.30
2023-01-26T15:54:12.017Z,9.33
2023-01-26T15:56:40.575Z,9.43
2023-01-26T15:59:09.182Z,9.80
2023-01-26T16:01:37.772Z,11.50
2023-01-26T16:04:06.518Z,9.10
2023-01-26T16:06:36.421Z,8.87
2023-01-26T16:09:05.151Z,10.10
2023-01-26T16:11:35.904Z,11.03
2023-01-26T16:14:04.649Z,10.13
2023-01-26T16:16:33.845Z,12.83
2023-01-26T16:19:02.650Z,10.30
2023-01-26T16:21:33.210Z,11.50
2023-01-26T16:24:03.784Z,12.83
2023-01-26T16:26:32.703Z,10.10
2023-01-26T16:29:01.306Z,11.07
2023-01-26T16:31:31.092Z,12.17
2023-01-26T16:34:00.966Z,11.87
2023-01-26T16:36:30.118Z,13.70
2023-01-26T16:38:58.753Z,11.67
2023-01-26T16:41:29.371Z,10.87
2023-01-26T16:43:58.622Z,12.87
2023-01-26T16:46:27.564Z,12.60
2023-01-26T16:48:56.433Z,12.70
2023-01-26T16:51:26.201Z,12.00
2023-01-26T16:53:55.457Z,12.90
2023-01-26T16:56:24.405Z,15.40
2023-01-26T16:58:54.392Z,12.97
2023-01-26T17:01:24.496Z,12.83
2023-01-26T17:03:53.536Z,11.90
2023-01-26T17:06:22.196Z,13.30
2023-01-26T17:08:51.076Z,15.40
2023-01-26T17:11:20.627Z,13.10
2023-01-26T17:13:49.772Z,14.93
2023-01-26T17:16:20.865Z,12.23
2023-01-26T17:18:50.403Z,13.60
2023-01-26T17:21:19.758Z,13.60
2023-01-26T17:23:50.354Z,17.17
2023-01-26T17:26:19.335Z,14.33
2023-01-26T17:28:48.921Z,13.43
2023-01-26T17:31:18.771Z,15.20
2023-01-26T17:33:49.445Z,13.90
2023-01-26T17:36:19.001Z,15.40
2023-01-26T17:38:48.374Z,15.63
2023-01-26T17:41:17.103Z,14.57
2023-01-26T17:43:45.728Z,15.03
2023-01-26T17:46:15.292Z,14.97
2023-01-26T17:48:45.216Z,14.17
2023-01-26T17:51:16.577Z,15.50
2023-01-26T17:53:46.370Z,15.43
2023-01-26T17:56:15.959Z,16.87
2023-01-26T17:58:44.655Z,18.00
2023-01-26T18:01:13.283Z,18.60
2023-01-26T18:03:42.392Z,17.73
2023-01-26T18:06:11.632Z,19.53
2023-01-26T18:08:41.684Z,20.60
2023-01-26T18:11:11.288Z,18.97
2023-01-26T18:13:39.913Z,20.73
2023-01-26T18:16:09.345Z,20.80
2023-01-26T18:18:38.750Z,20.53
2023-01-26T18:21:14.053Z,21.97
2023-01-26T18:23:46.454Z,19.20
2023-01-26T18:26:15.545Z,18.07
2023-01-26T18:28:44.448Z,16.20
2023-01-26T18:31:13.514Z,17.23
2023-01-26T18:33:42.202Z,16.90
2023-01-26T18:36:12.528Z,17.47
2023-01-26T18:38:41.108Z,15.57
2023-01-26T18:41:13.072Z,19.07
